Latest Weather Observations for Alva Beach

IDQ60801

Issued at 12:22 pm EST Saturday 1 October 2022 (issued every 10 minutes, with the page automatically refreshed every 10 minutes)

About weather observations | Map of weather stations | Latest weather observations for QLD | Other Formats
Station Details ID: 033295 Name: ALVA BEACH Lat: -19.46 Lon: 147.48 Height: 7.5 m
Data from the previous 72 hours. | See also: Recent months at Alva Beach
Date/Time
EST
Temp
°C
App
Temp
°C
Dew
Point
°C
Rel
Hum
%
Delta-T
°C
Wind Press
QNH
hPa
Press
MSL
hPa
Rain since
9am
mm
Dir  Spd
km/h
Gust
km/h
Spd
kts
Gust
kts
01/12:00pm 25.6 26.2 18.5 65 4.5 E 13 20 7 11 1015.1 1015.1 0.0
01/11:30am 25.4 26.1 18.8 67 4.2 E 13 22 7 12 1015.1 1015.1 0.0
01/11:00am 25.8 26.6 19.0 66 4.3 E 13 20 7 11 1015.5 1015.5 0.0
01/10:30am 25.8 26.4 19.4 67 4.1 ESE 15 22 8 12 1015.6 1015.6 0.0
01/10:00am 25.5 25.6 19.2 68 4.0 E 17 22 9 12 1015.4 1015.4 0.0
01/09:30am 25.3 26.4 19.7 71 3.6 E 13 20 7 11 1015.6 1015.6 0.0
01/09:00am 24.1 25.0 18.5 71 3.5 E 11 17 6 9 1015.9 1015.9 0.0
01/08:30am 24.1 25.1 18.7 72 3.4 E 11 19 6 10 1015.7 1015.7 0.0
01/08:00am 24.4 25.7 19.2 73 3.3 E 11 19 6 10 1015.7 1015.7 0.0
01/07:30am 21.5 23.6 18.9 85 1.6 SSE 6 9 3 5 1015.4 1015.4 0.0
01/07:00am 19.1 20.2 17.2 89 1.2 SSW 7 9 4 5 1014.9 1014.9 0.0
01/06:30am 18.3 19.2 16.5 89 1.1 SW 7 11 4 6 1014.9 1014.9 0.0
01/06:00am 18.6 19.6 16.4 87 1.3 SSW 6 9 3 5 1014.6 1014.6 0.0
01/05:30am 18.6 19.3 16.2 86 1.4 SSW 7 11 4 6 1013.9 1013.9 0.0
01/05:00am 18.7 19.3 16.7 88 1.2 ESE 9 13 5 7 1013.4 1013.4 0.0
01/04:30am 18.1 18.9 16.4 90 1.0 S 7 11 4 6 1013.3 1013.3 0.0
01/04:00am 18.1 18.9 16.3 89 1.1 SSW 7 11 4 6 1013.4 1013.4 0.0
01/03:30am 18.5 19.4 16.5 88 1.2 SSW 7 11 4 6 1013.5 1013.5 0.0
01/03:00am 18.3 19.0 16.1 87 1.3 SSW 7 11 4 6 1013.6 1013.6 0.0
01/02:30am 19.4 20.2 15.9 80 2.1 SSW 6 9 3 5 1014.0 1014.0 0.0
01/02:00am 22.5 23.3 17.2 72 3.3 E 9 17 5 9 1014.2 1014.2 0.0
01/01:30am 22.8 22.7 17.0 70 3.6 E 13 20 7 11 1014.5 1014.5 0.0
01/01:00am 22.8 22.5 17.3 71 3.4 ENE 15 22 8 12 1014.6 1014.6 0.0
01/12:30am 22.9 22.9 17.1 70 3.6 E 13 19 7 10 1015.0 1015.0 0.0
01/12:00am 23.0 23.0 17.2 70 3.6 E 13 19 7 10 1015.1 1015.1 0.0
 
Date/Time
EST
Temp
°C
App
Temp
°C
Dew
Point
°C
Rel
Hum
%
Delta-T
°C
Wind Press
QNH
hPa
Press
MSL
hPa
Rain since
9am
mm
Dir  Spd
km/h
Gust
km/h
Spd
kts
Gust
kts
30/11:30pm 23.2 22.2 16.7 67 4.0 ENE 17 24 9 13 1015.1 1015.1 0.0
30/11:00pm 23.3 22.4 16.8 67 4.0 ENE 17 24 9 13 1015.4 1015.4 0.0
30/10:30pm 23.3 22.5 17.1 68 3.8 ENE 17 24 9 13 1015.5 1015.5 0.0
30/10:00pm 23.3 23.4 17.5 70 3.6 E 13 22 7 12 1015.5 1015.5 0.0
30/09:30pm 23.1 23.0 16.9 68 3.8 E 13 19 7 10 1015.5 1015.5 0.0
30/09:00pm 23.1 23.1 17.1 69 3.7 ENE 13 20 7 11 1015.4 1015.4 0.0
30/08:30pm 23.3 22.9 17.1 68 3.8 ENE 15 22 8 12 1015.4 1015.4 0.0
30/08:00pm 23.3 22.6 17.3 69 3.7 ENE 17 24 9 13 1015.4 1015.4 0.0
30/07:30pm 23.4 22.1 17.2 68 3.8 ENE 20 24 11 13 1015.1 1015.1 0.0
30/07:00pm 23.5 22.2 17.3 68 3.8 ENE 20 24 11 13 1014.8 1014.8 0.0
30/06:30pm 23.6 22.3 17.3 67 3.9 ENE 20 24 11 13 1014.4 1014.4 0.0
30/06:00pm 23.7 21.6 17.2 67 4.0 ENE 24 32 13 17 1014.0 1014.0 0.0
30/05:30pm 24.1 21.9 17.8 68 3.9 ENE 26 30 14 16 1013.8 1013.8 0.0
30/05:00pm 24.6 22.2 18.3 68 4.0 ENE 28 32 15 17 1013.7 1013.7 0.0
30/04:30pm 25.1 22.4 17.6 63 4.7 ENE 28 33 15 18 1013.6 1013.6 0.0
30/04:00pm 25.2 22.4 17.4 62 4.9 ENE 28 33 15 18 1013.6 1013.6 0.0
30/03:30pm 25.5 22.7 18.2 64 4.6 ENE 30 35 16 19 1013.6 1013.6 0.0
30/03:00pm 25.4 22.9 18.1 64 4.6 ENE 28 33 15 18 1013.8 1013.8 0.0
30/02:30pm 25.4 22.3 16.5 57 5.5 ENE 28 35 15 19 1014.1 1014.1 0.0
30/02:00pm 25.6 23.3 18.5 65 4.5 ENE 28 37 15 20 1014.5 1014.5 0.0
30/01:30pm 25.5 22.7 17.4 61 5.1 ENE 28 35 15 19 1014.9 1014.9 0.0
30/01:00pm 25.7 23.8 18.6 65 4.5 ENE 26 37 14 20 1015.3 1015.3 0.0
30/12:30pm 25.4 24.0 18.8 67 4.2 E 24 32 13 17 1016.0 1016.0 0.0
30/12:00pm 25.3 24.4 18.2 64 4.5 E 20 30 11 16 1016.4 1016.4 0.0
30/11:30am 25.2 24.2 18.9 68 4.0 E 22 32 12 17 1016.8 1016.8 0.0
30/11:00am 24.9 24.8 19.5 72 3.5 E 19 28 10 15 1017.4 1017.4 0.0
30/10:30am 25.7 26.2 20.0 71 3.7 E 17 26 9 14 1017.6 1017.6 0.0
30/10:00am 25.4 26.5 20.4 74 3.3 E 15 24 8 13 1017.9 1017.9 0.0
30/09:30am 25.4 26.4 20.2 73 3.4 E 15 22 8 12 1017.9 1017.9 0.0
30/09:00am 24.9 26.2 20.2 75 3.0 E 13 17 7 9 1018.0 1018.0 0.0
30/08:30am 24.2 27.1 21.1 83 2.0 ESE 7 15 4 8 1017.7 1017.7 0.0
30/08:00am 22.2 24.6 20.8 92 0.9 S 9 15 5 8 1017.6 1017.6 0.0
30/07:30am 20.5 22.0 19.8 96 0.4 S 11 15 6 8 1017.1 1017.1 0.0
30/07:00am 19.2 20.7 18.9 98 0.2 SSW 9 13 5 7 1016.6 1016.6 0.0
30/06:30am 18.0 19.0 17.7 98 0.2 SSW 9 11 5 6 1016.2 1016.2 0.0
30/06:00am 17.5 18.3 17.2 98 0.2 SSW 9 11 5 6 1015.7 1015.7 0.0
30/05:30am 17.7 18.9 17.4 98 0.2 SW 7 9 4 5 1015.4 1015.4 0.0
30/05:00am 17.8 19.0 17.3 97 0.3 SW 7 9 4 5 1015.3 1015.3 0.0
30/04:30am 17.9 19.3 17.4 97 0.3 SW 6 9 3 5 1014.9 1014.9 0.0
30/04:00am 18.2 19.6 17.7 97 0.3 SW 7 9 4 5 1014.7 1014.7 0.0
30/03:30am 18.3 19.7 17.7 96 0.4 SW 7 9 4 5 1014.6 1014.6 0.0
30/03:00am 18.6 19.7 17.9 96 0.4 SSW 9 11 5 6 1014.7 1014.7 0.0
30/02:30am 18.5 19.6 17.9 96 0.4 SSW 9 11 5 6 1014.8 1014.8 0.0
30/02:00am 18.6 20.0 17.8 95 0.5 SSW 7 11 4 6 1015.1 1015.1 0.0
30/01:30am 18.7 20.1 17.7 94 0.6 SW 7 9 4 5 1015.2 1015.2 0.0
30/01:00am 19.0 20.6 17.8 93 0.7 SW 6 9 3 5 1015.4 1015.4 0.0
30/12:30am 19.3 20.8 18.0 92 0.8 SSW 7 9 4 5 1015.7 1015.7 0.0
30/12:00am 20.3 21.9 18.2 88 1.3 S 7 11 4 6 1015.8 1015.8 0.0
 
Date/Time
EST
Temp
°C
App
Temp
°C
Dew
Point
°C
Rel
Hum
%
Delta-T
°C
Wind Press
QNH
hPa
Press
MSL
hPa
Rain since
9am
mm
Dir  Spd
km/h
Gust
km/h
Spd
kts
Gust
kts
29/11:30pm 21.0 23.0 18.8 87 1.4 ESE 6 9 3 5 1016.0 1016.0 0.0
29/11:00pm 21.0 22.8 18.4 85 1.6 ESE 6 7 3 4 1016.3 1016.3 0.0
29/10:30pm 22.1 24.0 18.5 80 2.3 E 6 7 3 4 1016.3 1016.3 0.0
29/10:00pm 22.8 24.5 18.6 77 2.6 E 7 11 4 6 1016.4 1016.4 0.0
29/09:30pm 23.2 24.9 18.5 75 3.0 E 7 11 4 6 1016.3 1016.3 0.0
29/09:00pm 23.5 24.6 18.8 75 3.0 ENE 11 17 6 9 1016.0 1016.0 0.0
29/08:30pm 23.6 24.2 18.5 73 3.2 ENE 13 19 7 10 1015.8 1015.8 0.0
29/08:00pm 23.5 23.7 18.6 74 3.1 ENE 15 17 8 9 1015.5 1015.5 0.0
29/07:30pm 23.5 24.0 18.4 73 3.2 ENE 13 17 7 9 1015.3 1015.3 0.0
29/07:00pm 23.3 23.7 18.2 73 3.2 ENE 13 17 7 9 1015.0 1015.0 0.0
29/06:30pm 23.5 24.0 18.4 73 3.2 ENE 13 17 7 9 1014.7 1014.7 0.0
29/06:00pm 23.6 23.5 17.8 70 3.6 ENE 15 19 8 10 1014.4 1014.4 0.0
29/05:30pm 23.9 23.3 17.6 68 3.9 ENE 17 26 9 14 1014.2 1014.2 0.0
29/05:00pm 24.2 23.1 17.4 65 4.2 ENE 19 22 10 12 1013.9 1013.9 0.0
29/04:30pm 24.5 23.5 18.0 67 4.1 ENE 20 24 11 13 1013.7 1013.7 0.0
29/04:00pm 24.4 23.1 18.1 68 4.0 ENE 22 28 12 15 1013.6 1013.6 0.0
29/03:30pm 24.8 24.0 18.0 66 4.3 ENE 19 24 10 13 1013.6 1013.6 0.0
29/03:00pm 24.7 24.7 18.2 67 4.1 E 15 20 8 11 1013.9 1013.9 0.0
29/02:30pm 24.8 24.2 17.5 64 4.6 E 17 22 9 12 1014.1 1014.1 0.0
29/02:00pm 25.3 25.6 18.0 64 4.6 E 13 19 7 10 1014.5 1014.5 0.0
29/01:30pm 24.9 25.6 17.9 65 4.4 E 11 19 6 10 1015.1 1015.1 0.0
29/01:00pm 25.1 25.9 17.3 62 4.8 ESE 9 13 5 7 1015.6 1015.6 0.0
29/12:30pm 25.3 26.7 18.7 67 4.2 SE 9 15 5 8 1016.1 1016.1 0.0
29/12:00pm 25.0 26.2 18.2 66 4.3 SE 9 19 5 10 1016.5 1016.5 0.0
29/11:30am 24.6 26.1 19.0 71 3.6 S 9 17 5 9 1016.9 1016.9 0.0
29/11:00am 22.9 24.6 19.3 80 2.3 S 9 17 5 9 1017.1 1017.1 0.0
29/10:30am 21.4 22.6 19.1 87 1.5 SSW 11 19 6 10 1017.5 1017.5 0.0
29/10:00am 20.7 22.7 19.9 95 0.5 SSW 9 20 5 11 1017.7 1017.7 0.0
29/09:30am 19.9 21.6 19.4 97 0.3 SSW 9 17 5 9 1017.8 1017.8 0.0
29/09:00am 19.6 21.3 19.3 98 0.2 SW 9 15 5 8 1017.8 1017.8 8.4
29/08:30am 19.5 21.1 19.2 98 0.2 SSW 9 13 5 7 1017.0 1017.0 8.4
29/08:00am 19.2 21.3 18.9 98 0.2 SSW 6 7 3 4 1017.3 1017.3 8.4
29/07:30am 19.0 20.8 18.7 98 0.2 SSW 7 13 4 7 1017.1 1017.1 8.2
29/07:00am 18.7 20.5 18.4 98 0.2 S 6 7 3 4 1016.5 1016.5 8.2
29/06:30am 18.4 20.5 18.1 98 0.2 SSW 4 7 2 4 1015.9 1015.9 8.0
29/06:00am 18.3 20.4 18.0 98 0.2 ESE 4 7 2 4 1015.9 1015.9 8.0
29/05:30am 18.2 19.8 17.9 98 0.2 S 6 9 3 5 1015.5 1015.5 7.8
29/05:00am 18.1 18.7 17.8 98 0.2 SSW 11 17 6 9 1015.2 1015.2 7.0
29/04:30am 18.4 18.7 17.9 97 0.3 SW 13 26 7 14 1015.2 1015.2 4.6
29/04:00am 18.6 18.1 17.8 95 0.5 SSW 17 28 9 15 1015.1 1015.1 1.8
29/03:30am 19.1 18.9 17.6 91 0.9 SSW 15 28 8 15 1014.8 1014.8 0.6
29/03:00am 19.3 19.0 17.4 89 1.2 SW 15 24 8 13 1015.1 1015.1 0.6
29/02:30am 19.6 18.8 17.2 86 1.5 SSW 17 28 9 15 1014.8 1014.8 0.6
29/02:00am 20.1 20.0 16.9 82 1.9 SSW 13 24 7 13 1014.7 1014.7 0.4
29/01:30am 20.1 20.0 16.9 82 1.9 SSW 13 22 7 12 1014.8 1014.8 0.4
29/01:00am 19.7 20.1 17.3 86 1.5 SSW 11 17 6 9 1015.2 1015.2 0.4
29/12:30am 19.5 19.9 17.3 87 1.3 S 11 22 6 12 1014.9 1014.9 0.4
29/12:00am 21.2 21.3 16.4 74 2.9 SSW 11 24 6 13 1015.8 1015.8 0.0
 
Date/Time
EST
Temp
°C
App
Temp
°C
Dew
Point
°C
Rel
Hum
%
Delta-T
°C
Wind Press
QNH
hPa
Press
MSL
hPa
Rain since
9am
mm
Dir  Spd
km/h
Gust
km/h
Spd
kts
Gust
kts
28/11:30pm 22.2 20.8 15.5 66 4.0 SSW 17 32 9 17 1015.7 1015.7 0.0
28/11:00pm 23.0 21.4 15.1 61 4.7 SSW 17 30 9 16 1015.3 1015.3 0.0
28/10:30pm 23.9 23.3 15.7 60 5.0 SSW 13 24 7 13 1015.3 1015.3 0.0
28/10:00pm 25.2 27.6 20.9 77 2.8 E 9 13 5 7 1014.9 1014.9 0.0
28/09:30pm 25.4 27.3 20.6 75 3.1 E 11 19 6 10 1014.3 1014.3 0.0
28/09:00pm 25.5 27.6 20.1 72 3.5 E 9 11 5 6 1014.4 1014.4 0.0
28/08:30pm 25.4 27.7 19.5 70 3.8 ESE 6 9 3 5 1014.6 1014.6 0.0
28/08:00pm 25.4 27.3 19.8 71 3.6 E 9 15 5 8 1014.3 1014.3 0.0
28/07:30pm 25.4 27.4 20.0 72 3.5 E 9 15 5 8 1013.8 1013.8 0.0
28/07:00pm 25.3 27.2 19.7 71 3.6 E 9 15 5 8 1013.5 1013.5 0.0
28/06:30pm 25.7 26.6 19.3 67 4.1 ENE 13 19 7 10 1013.2 1013.2 0.0
28/06:00pm 25.8 25.5 19.2 67 4.2 ENE 19 20 10 11 1012.8 1012.8 0.0
28/05:30pm 26.0 26.2 19.4 67 4.3 ENE 17 20 9 11 1012.3 1012.3 0.0
28/05:00pm 26.4 26.3 20.0 68 4.2 ENE 20 24 11 13 1011.6 1011.6 0.0
28/04:30pm 26.6 26.2 20.9 71 3.8 ENE 24 28 13 15 1011.0 1011.0 0.0
28/04:00pm 26.8 27.4 21.3 72 3.7 NE 20 24 11 13 1011.4 1011.4 0.0
28/03:30pm 26.6 26.5 20.7 70 3.9 NE 22 24 12 13 1011.4 1011.4 0.0
28/03:00pm 27.3 27.4 20.4 66 4.5 NE 20 24 11 13 1011.4 1011.4 0.0
28/02:30pm 27.5 27.8 20.8 67 4.4 NE 20 26 11 14 1011.5 1011.5 0.0
28/02:00pm 27.2 27.3 21.2 69 4.0 NE 22 26 12 14 1011.8 1011.8 0.0
28/01:30pm 27.5 27.0 20.8 67 4.4 NE 24 26 13 14 1012.0 1012.0 0.0
28/01:00pm 27.8 28.0 20.6 65 4.7 ENE 20 22 11 12 1012.4 1012.4 0.0
28/12:30pm 27.5 27.7 20.6 66 4.5 ENE 20 24 11 13 1012.8 1012.8 0.0

Other formats

Comma delimited format used in spreadsheet applications
http://www.bom.gov.au/fwo/IDQ60801/IDQ60801.95296.axf

JavaScript Object Notation format (JSON) in row-major order
http://www.bom.gov.au/fwo/IDQ60801/IDQ60801.95296.json

Data quality

Most of these data are generated automatically and are frequently updated. Quality checks on data are not normally performed. It is possible for incorrect values to appear. Refer to information at About Latest Weather Observations and please check the disclaimer before using these data.